createdAt,value
2017-12-26T00:00:01.768Z,3.00
2017-12-26T00:01:03.056Z,2.90
2017-12-26T00:02:04.341Z,2.90
2017-12-26T00:03:05.624Z,2.90
2017-12-26T00:04:07.676Z,2.90
2017-12-26T00:05:09.718Z,2.90
2017-12-26T00:06:11.006Z,2.90
2017-12-26T00:07:12.282Z,2.90
2017-12-26T00:08:13.567Z,2.90
2017-12-26T00:09:14.868Z,3.00
2017-12-26T00:10:16.901Z,3.10
2017-12-26T00:11:18.194Z,3.10
2017-12-26T00:12:19.484Z,3.10
2017-12-26T00:13:20.762Z,3.10
2017-12-26T00:14:22.060Z,3.10
2017-12-26T00:15:24.102Z,3.10
2017-12-26T00:16:25.408Z,3.10
2017-12-26T00:17:26.702Z,3.20
2017-12-26T00:18:28.732Z,3.20
2017-12-26T00:19:30.020Z,3.20
2017-12-26T00:20:31.306Z,3.30
2017-12-26T00:21:32.592Z,3.30
2017-12-26T00:22:33.900Z,3.30
2017-12-26T00:23:35.932Z,3.30
2017-12-26T00:24:37.520Z,3.30
2017-12-26T00:25:38.816Z,3.30
2017-12-26T00:26:40.116Z,3.30
2017-12-26T00:27:41.405Z,3.30
2017-12-26T00:28:43.424Z,3.40
2017-12-26T00:29:44.756Z,3.30
2017-12-26T00:30:46.044Z,3.30
2017-12-26T00:31:47.329Z,3.30
2017-12-26T00:32:48.628Z,3.30
2017-12-26T00:33:49.917Z,3.30
2017-12-26T00:34:51.468Z,3.30
2017-12-26T00:35:53.484Z,3.30
2017-12-26T00:36:54.808Z,3.30
2017-12-26T00:37:56.101Z,3.30
2017-12-26T00:38:58.208Z,3.30
2017-12-26T00:39:59.540Z,3.30
2017-12-26T00:41:00.840Z,3.30
2017-12-26T00:42:02.862Z,3.40
2017-12-26T00:43:04.150Z,3.30
2017-12-26T00:44:05.428Z,3.40
2017-12-26T00:45:06.996Z,3.40
2017-12-26T00:46:09.024Z,3.40
2017-12-26T00:47:10.300Z,3.40
2017-12-26T00:48:11.573Z,3.40
2017-12-26T00:49:12.848Z,3.40
2017-12-26T00:50:14.152Z,3.50
2017-12-26T00:51:15.440Z,3.50
2017-12-26T00:52:17.468Z,3.50
2017-12-26T00:53:18.755Z,3.50
2017-12-26T00:54:20.044Z,3.50
2017-12-26T00:55:21.596Z,3.50
2017-12-26T00:56:23.608Z,3.40
2017-12-26T00:57:24.887Z,3.40
2017-12-26T00:58:26.921Z,3.40
2017-12-26T00:59:28.196Z,3.40
2017-12-26T01:00:29.535Z,3.40
2017-12-26T01:01:37.724Z,3.40
2017-12-26T01:02:39.736Z,3.50
2017-12-26T01:03:41.016Z,3.40
2017-12-26T01:04:42.296Z,3.50
2017-12-26T01:05:43.868Z,3.50
2017-12-26T01:06:45.148Z,3.50
2017-12-26T01:07:46.422Z,3.50
2017-12-26T01:08:47.687Z,3.50
2017-12-26T01:09:49.728Z,3.50
2017-12-26T01:10:51.309Z,3.50
2017-12-26T01:11:52.610Z,3.50
2017-12-26T01:12:53.888Z,3.50
2017-12-26T01:13:55.166Z,3.50
2017-12-26T01:14:56.448Z,3.50
2017-12-26T01:15:58.004Z,3.50
2017-12-26T01:16:59.295Z,3.50
2017-12-26T01:18:00.572Z,3.40
2017-12-26T01:19:01.860Z,3.40
2017-12-26T01:20:03.149Z,3.40
2017-12-26T01:21:04.452Z,3.40
2017-12-26T01:22:06.480Z,3.40
2017-12-26T01:23:07.794Z,3.30
2017-12-26T01:24:09.082Z,3.30
2017-12-26T01:25:11.114Z,3.30
2017-12-26T01:26:12.669Z,3.30
2017-12-26T01:27:14.694Z,3.20
2017-12-26T01:28:15.996Z,3.20
2017-12-26T01:29:17.280Z,3.20
2017-12-26T01:30:18.568Z,3.20
2017-12-26T01:31:19.864Z,3.20
2017-12-26T01:32:21.160Z,3.20
2017-12-26T01:33:22.444Z,3.20
2017-12-26T01:34:23.767Z,3.20
2017-12-26T01:35:25.052Z,3.10
2017-12-26T01:36:26.380Z,3.10
2017-12-26T01:37:27.672Z,3.10
2017-12-26T01:38:28.961Z,3.10
2017-12-26T01:39:30.283Z,3.20
2017-12-26T01:40:31.568Z,3.20
2017-12-26T01:41:33.140Z,3.20
2017-12-26T01:42:35.161Z,3.20
2017-12-26T01:43:36.441Z,3.20
2017-12-26T01:44:38.456Z,3.20
2017-12-26T01:45:39.726Z,3.20
2017-12-26T01:46:42.032Z,3.20
2017-12-26T01:47:43.310Z,3.20
2017-12-26T01:48:52.328Z,3.30
2017-12-26T01:49:54.348Z,3.30
2017-12-26T01:50:55.632Z,3.30
2017-12-26T01:51:57.932Z,3.30
2017-12-26T01:52:59.208Z,3.30
2017-12-26T01:54:00.488Z,3.30
2017-12-26T01:55:01.772Z,3.40
2017-12-26T01:56:03.053Z,3.40
2017-12-26T01:57:04.352Z,3.30
2017-12-26T01:58:05.618Z,3.30
2017-12-26T01:59:06.896Z,3.30
2017-12-26T02:00:08.212Z,3.30
2017-12-26T02:01:09.505Z,3.30
2017-12-26T02:02:11.808Z,3.30
2017-12-26T02:03:13.092Z,3.30
2017-12-26T02:04:14.399Z,3.30
2017-12-26T02:05:15.688Z,3.20
2017-12-26T02:06:17.716Z,3.20
2017-12-26T02:07:19.289Z,3.20
2017-12-26T02:08:20.560Z,3.20
2017-12-26T02:09:21.859Z,3.30
2017-12-26T02:10:23.148Z,3.30
2017-12-26T02:11:24.426Z,3.30
2017-12-26T02:12:26.480Z,3.30
2017-12-26T02:13:28.520Z,3.30
2017-12-26T02:14:30.550Z,3.30
2017-12-26T02:15:31.834Z,3.30
2017-12-26T02:16:33.120Z,3.30
2017-12-26T02:17:34.674Z,3.20
2017-12-26T02:18:35.960Z,3.20
2017-12-26T02:19:37.232Z,3.20
2017-12-26T02:20:38.508Z,3.20
2017-12-26T02:21:40.544Z,3.20
2017-12-26T02:22:42.132Z,3.10
2017-12-26T02:23:43.404Z,3.10
2017-12-26T02:24:44.688Z,3.10
2017-12-26T02:25:45.968Z,3.10
2017-12-26T02:26:47.246Z,3.10
2017-12-26T02:27:49.556Z,3.00
2017-12-26T02:28:50.828Z,3.00
2017-12-26T02:29:52.112Z,3.00
2017-12-26T02:30:53.393Z,3.00
2017-12-26T02:31:54.680Z,3.00
2017-12-26T02:32:55.994Z,3.00
2017-12-26T02:33:58.041Z,3.00
2017-12-26T02:35:00.100Z,3.00
2017-12-26T02:36:02.125Z,3.00
2017-12-26T02:37:03.408Z,3.00
2017-12-26T02:38:04.705Z,3.00
2017-12-26T02:39:05.996Z,3.00
2017-12-26T02:40:07.357Z,3.10
2017-12-26T02:41:08.646Z,3.10
2017-12-26T02:42:09.932Z,3.10
2017-12-26T02:43:12.980Z,3.10
2017-12-26T02:44:14.260Z,3.10
2017-12-26T02:45:15.565Z,3.10
2017-12-26T02:46:16.858Z,3.20
2017-12-26T02:47:18.153Z,3.20
2017-12-26T02:48:20.479Z,3.20
2017-12-26T02:49:21.762Z,3.20
2017-12-26T02:50:23.046Z,3.20
2017-12-26T02:51:24.338Z,3.20
2017-12-26T02:52:25.618Z,3.20
2017-12-26T02:53:27.200Z,3.20
2017-12-26T02:54:28.496Z,3.30
2017-12-26T02:55:29.780Z,3.30
2017-12-26T02:56:31.065Z,3.30
2017-12-26T02:57:32.364Z,3.30
2017-12-26T02:58:33.670Z,3.30
2017-12-26T02:59:34.958Z,3.30
2017-12-26T03:00:36.990Z,3.40
2017-12-26T03:01:38.290Z,3.30
2017-12-26T03:02:39.576Z,3.40
2017-12-26T03:03:41.902Z,3.40
2017-12-26T03:04:43.202Z,3.30
2017-12-26T03:05:44.498Z,3.40
2017-12-26T03:06:45.784Z,3.40
2017-12-26T03:07:47.072Z,3.40
2017-12-26T03:08:48.660Z,3.40
2017-12-26T03:09:49.958Z,3.40
2017-12-26T03:10:51.988Z,3.40
2017-12-26T03:11:53.278Z,3.40
2017-12-26T03:12:54.572Z,3.40
2017-12-26T03:13:56.134Z,3.40
2017-12-26T03:14:58.176Z,3.40
2017-12-26T03:15:59.473Z,3.40
2017-12-26T03:17:00.762Z,3.40
2017-12-26T03:18:02.780Z,3.40
2017-12-26T03:19:04.340Z,3.40
2017-12-26T03:20:05.622Z,3.40
2017-12-26T03:21:06.902Z,3.40
2017-12-26T03:22:08.179Z,3.40
2017-12-26T03:23:09.478Z,3.40
2017-12-26T03:24:11.041Z,3.40
2017-12-26T03:25:13.057Z,3.40
2017-12-26T03:26:14.334Z,3.40
2017-12-26T03:27:16.370Z,3.40
2017-12-26T03:28:17.655Z,3.40
2017-12-26T03:29:18.949Z,3.40
2017-12-26T03:30:20.968Z,3.40
2017-12-26T03:31:22.244Z,3.40
2017-12-26T03:32:24.266Z,3.40
2017-12-26T03:33:25.547Z,3.40
2017-12-26T03:34:27.106Z,3.40
2017-12-26T03:35:28.425Z,3.40
2017-12-26T03:36:30.436Z,3.40
2017-12-26T03:37:31.720Z,3.40
2017-12-26T03:38:33.000Z,3.40
2017-12-26T03:39:34.563Z,3.40
2017-12-26T03:40:35.874Z,3.30
2017-12-26T03:41:37.166Z,3.40
2017-12-26T03:42:39.195Z,3.40
2017-12-26T03:43:40.464Z,3.30
2017-12-26T03:44:42.016Z,3.30
2017-12-26T03:45:43.315Z,3.30
2017-12-26T03:46:44.591Z,3.20
2017-12-26T03:47:45.864Z,3.20
2017-12-26T03:48:47.157Z,3.20
2017-12-26T03:49:48.748Z,3.20
2017-12-26T03:50:50.037Z,3.20
2017-12-26T03:51:51.306Z,3.20
2017-12-26T03:52:52.580Z,3.20
2017-12-26T03:53:54.601Z,3.20
2017-12-26T03:54:56.174Z,3.20
2017-12-26T03:55:58.200Z,3.20
2017-12-26T03:56:59.471Z,3.20
2017-12-26T03:58:01.491Z,3.20
2017-12-26T03:59:02.780Z,3.20
2017-12-26T04:00:04.338Z,3.20
2017-12-26T04:01:05.628Z,3.20
2017-12-26T04:02:07.646Z,3.30
2017-12-26T04:03:08.932Z,3.30
2017-12-26T04:04:10.987Z,3.30
2017-12-26T04:05:13.239Z,3.30
2017-12-26T04:06:15.269Z,3.30
2017-12-26T04:07:16.571Z,3.30
2017-12-26T04:08:17.871Z,3.40
2017-12-26T04:09:19.879Z,3.40
2017-12-26T04:10:21.446Z,3.40
2017-12-26T04:11:22.732Z,3.40
2017-12-26T04:12:24.011Z,3.40
2017-12-26T04:13:25.298Z,3.40
2017-12-26T04:14:26.584Z,3.40
2017-12-26T04:15:28.159Z,3.40
2017-12-26T04:16:29.440Z,3.40
2017-12-26T04:17:52.557Z,3.40
2017-12-26T04:18:53.831Z,3.40
2017-12-26T04:19:55.099Z,3.40
2017-12-26T04:20:57.396Z,3.40
2017-12-26T04:21:58.689Z,3.30
2017-12-26T04:22:59.968Z,3.40
2017-12-26T04:24:01.248Z,3.40
2017-12-26T04:25:02.544Z,3.40
2017-12-26T04:26:04.111Z,3.40
2017-12-26T04:27:05.419Z,3.40
2017-12-26T04:28:06.708Z,3.40
2017-12-26T04:29:08.005Z,3.40
2017-12-26T04:30:09.285Z,3.50
2017-12-26T04:31:10.845Z,3.50
2017-12-26T04:32:12.868Z,3.50
2017-12-26T04:33:14.191Z,3.50
2017-12-26T04:34:15.475Z,3.50
2017-12-26T04:35:16.768Z,3.50
2017-12-26T04:36:18.336Z,3.40
2017-12-26T04:37:20.366Z,3.40
2017-12-26T04:38:21.648Z,3.40
2017-12-26T04:39:22.922Z,3.50
2017-12-26T04:40:24.222Z,3.40
2017-12-26T04:41:25.832Z,3.40
2017-12-26T04:42:27.119Z,3.40
2017-12-26T04:43:28.404Z,3.40
2017-12-26T04:44:29.684Z,3.40
2017-12-26T04:45:30.970Z,3.40
2017-12-26T04:46:32.518Z,3.40
2017-12-26T04:47:33.801Z,3.40
2017-12-26T04:48:35.096Z,3.40
2017-12-26T04:49:37.134Z,3.40
2017-12-26T04:50:38.411Z,3.30
2017-12-26T04:51:39.983Z,3.40
2017-12-26T04:52:41.261Z,3.40
2017-12-26T04:53:42.548Z,3.30
2017-12-26T04:54:43.836Z,3.30
2017-12-26T04:55:45.110Z,3.30
2017-12-26T04:56:46.681Z,3.30
2017-12-26T04:57:47.978Z,3.30
2017-12-26T04:58:49.272Z,3.30
2017-12-26T04:59:50.588Z,3.30
2017-12-26T05:00:53.368Z,3.20
2017-12-26T05:01:54.932Z,3.20
2017-12-26T05:02:56.214Z,3.20
2017-12-26T05:03:57.494Z,3.20
2017-12-26T05:04:58.803Z,3.20
2017-12-26T05:06:00.092Z,3.10
2017-12-26T05:07:02.355Z,3.10
2017-12-26T05:08:04.400Z,3.10
2017-12-26T05:09:06.446Z,3.00
2017-12-26T05:10:07.742Z,3.00
2017-12-26T05:11:09.028Z,3.00
2017-12-26T05:12:11.373Z,3.00
2017-12-26T05:13:12.660Z,3.00
2017-12-26T05:14:13.948Z,3.00
2017-12-26T05:15:15.246Z,3.10
2017-12-26T05:16:16.539Z,3.10
2017-12-26T05:17:18.576Z,3.10
2017-12-26T05:18:19.858Z,3.10
2017-12-26T05:19:21.144Z,3.10
2017-12-26T05:20:22.438Z,3.10
2017-12-26T05:21:23.736Z,3.10
2017-12-26T05:22:26.038Z,3.10
2017-12-26T05:23:27.326Z,3.10
2017-12-26T05:24:36.459Z,3.10
2017-12-26T05:25:38.488Z,3.10
2017-12-26T05:26:39.760Z,3.00
2017-12-26T05:27:41.320Z,3.10
2017-12-26T05:28:42.598Z,3.00
2017-12-26T05:29:43.889Z,3.10
2017-12-26T05:30:45.181Z,3.10
2017-12-26T05:31:46.462Z,3.10
2017-12-26T05:32:47.758Z,3.10
2017-12-26T05:33:49.786Z,3.10
2017-12-26T05:34:51.084Z,3.10
2017-12-26T05:35:52.361Z,3.10
2017-12-26T05:36:53.656Z,3.10
2017-12-26T05:37:54.960Z,3.20
2017-12-26T05:38:56.994Z,3.10
2017-12-26T05:39:58.296Z,3.20
2017-12-26T05:40:59.593Z,3.10
2017-12-26T05:42:03.171Z,3.20
2017-12-26T05:43:04.460Z,3.10
2017-12-26T05:44:05.748Z,3.20
2017-12-26T05:45:07.810Z,3.20
2017-12-26T05:46:09.838Z,3.20
2017-12-26T05:47:11.128Z,3.20
2017-12-26T05:48:12.694Z,3.10
2017-12-26T05:49:14.000Z,3.10
2017-12-26T05:50:15.284Z,3.10
2017-12-26T05:51:16.766Z,3.10
2017-12-26T05:52:18.055Z,3.10
2017-12-26T05:53:19.370Z,3.10
2017-12-26T05:54:20.679Z,3.10
2017-12-26T05:55:21.959Z,3.10
2017-12-26T05:56:23.251Z,3.10
2017-12-26T05:57:24.553Z,3.10
2017-12-26T05:58:26.008Z,3.10
2017-12-26T05:59:28.052Z,3.10
2017-12-26T06:00:29.330Z,3.10
2017-12-26T06:01:30.632Z,3.10
2017-12-26T06:02:32.654Z,3.10
2017-12-26T06:03:34.266Z,3.10
2017-12-26T06:04:35.554Z,3.10
2017-12-26T06:05:36.839Z,3.10
2017-12-26T06:06:38.110Z,3.10
2017-12-26T06:07:39.422Z,3.10
2017-12-26T06:08:40.726Z,3.20
2017-12-26T06:09:42.020Z,3.10
2017-12-26T06:10:43.316Z,3.10
2017-12-26T06:11:44.632Z,3.10
2017-12-26T06:12:46.658Z,3.10
2017-12-26T06:13:48.254Z,3.10
2017-12-26T06:14:49.526Z,3.10
2017-12-26T06:15:50.821Z,3.00
2017-12-26T06:16:52.095Z,3.00
2017-12-26T06:17:53.380Z,3.10
2017-12-26T06:18:54.941Z,3.10
2017-12-26T06:19:56.241Z,3.10
2017-12-26T06:20:58.284Z,3.10
2017-12-26T06:21:59.580Z,3.10
2017-12-26T06:23:00.880Z,3.10
2017-12-26T06:24:02.176Z,3.10
2017-12-26T06:25:03.460Z,3.10
2017-12-26T06:26:04.735Z,3.10
2017-12-26T06:27:06.020Z,3.10
2017-12-26T06:28:08.060Z,3.10
2017-12-26T06:29:10.098Z,3.10
2017-12-26T06:30:11.375Z,3.00
2017-12-26T06:31:12.657Z,3.10
2017-12-26T06:32:13.943Z,3.10
2017-12-26T06:33:15.221Z,3.10
2017-12-26T06:34:16.533Z,3.10
2017-12-26T06:35:17.819Z,3.10
2017-12-26T06:36:19.107Z,3.10
2017-12-26T06:37:20.380Z,3.00
2017-12-26T06:38:21.664Z,3.00
2017-12-26T06:39:23.249Z,3.00
2017-12-26T06:40:24.530Z,3.10
2017-12-26T06:41:26.545Z,3.10
2017-12-26T06:42:27.860Z,3.10
2017-12-26T06:43:29.150Z,3.10
2017-12-26T06:44:31.446Z,3.10
2017-12-26T06:45:32.733Z,3.10
2017-12-26T06:46:34.003Z,3.10
2017-12-26T06:47:35.271Z,3.10
2017-12-26T06:48:36.564Z,3.10
2017-12-26T06:49:38.621Z,3.10
2017-12-26T06:50:39.898Z,3.10
2017-12-26T06:51:41.186Z,3.10
2017-12-26T06:52:43.234Z,3.10
2017-12-26T06:53:45.246Z,3.20
2017-12-26T06:54:46.559Z,3.10
2017-12-26T06:55:47.831Z,3.20
2017-12-26T06:56:49.109Z,3.20
2017-12-26T06:57:50.387Z,3.20
2017-12-26T06:58:51.675Z,3.20
2017-12-26T06:59:53.983Z,3.20
2017-12-26T07:00:55.283Z,3.20
2017-12-26T07:01:56.570Z,3.20
2017-12-26T07:02:57.855Z,3.20
2017-12-26T07:03:59.146Z,3.20
2017-12-26T07:05:00.746Z,3.20
2017-12-26T07:06:02.009Z,3.20
2017-12-26T07:07:03.325Z,3.30
2017-12-26T07:08:04.620Z,3.30
2017-12-26T07:09:06.631Z,3.30
2017-12-26T07:10:08.188Z,3.30
2017-12-26T07:11:09.462Z,3.30
2017-12-26T07:12:10.775Z,3.30
2017-12-26T07:13:12.082Z,3.40
2017-12-26T07:14:13.370Z,3.40
2017-12-26T07:15:15.441Z,3.40
2017-12-26T07:16:16.733Z,3.40
2017-12-26T07:17:18.007Z,3.40
2017-12-26T07:18:19.291Z,3.40
2017-12-26T07:19:26.545Z,3.40
2017-12-26T07:20:33.866Z,3.50
2017-12-26T07:21:41.161Z,3.50
2017-12-26T07:22:43.181Z,3.50
2017-12-26T07:23:44.481Z,3.50
2017-12-26T07:24:45.771Z,3.40
2017-12-26T07:25:47.075Z,3.40
2017-12-26T07:26:48.407Z,3.40
2017-12-26T07:27:49.735Z,3.40
2017-12-26T07:28:51.042Z,3.40
2017-12-26T07:29:53.073Z,3.30
2017-12-26T07:30:54.637Z,3.30
2017-12-26T07:31:56.657Z,3.40
2017-12-26T07:32:57.949Z,3.40
2017-12-26T07:33:59.230Z,3.40
2017-12-26T07:35:00.515Z,3.40
2017-12-26T07:36:01.825Z,3.50
2017-12-26T07:37:03.865Z,3.50
2017-12-26T07:38:05.180Z,3.50
2017-12-26T07:39:06.465Z,3.50
2017-12-26T07:40:07.787Z,3.50
2017-12-26T07:41:10.040Z,3.60
2017-12-26T07:42:12.095Z,3.60
2017-12-26T07:43:14.174Z,3.60
2017-12-26T07:44:15.461Z,3.60
2017-12-26T07:45:17.484Z,3.70
2017-12-26T07:46:19.071Z,3.60
2017-12-26T07:47:20.365Z,3.70
2017-12-26T07:48:21.661Z,3.70
2017-12-26T07:49:23.701Z,3.80
2017-12-26T07:50:24.995Z,3.80
2017-12-26T07:51:26.313Z,3.80
2017-12-26T07:52:27.597Z,3.90
2017-12-26T07:53:28.897Z,4.00
2017-12-26T07:54:30.187Z,4.10
2017-12-26T07:55:31.577Z,4.20
2017-12-26T07:56:33.183Z,4.30
2017-12-26T07:57:35.375Z,4.60
2017-12-26T07:58:36.889Z,4.70
2017-12-26T07:59:38.259Z,4.90
2017-12-26T08:00:39.641Z,5.10
2017-12-26T08:01:41.360Z,5.40
2017-12-26T08:02:42.715Z,5.60
2017-12-26T08:03:44.221Z,5.90
2017-12-26T08:04:45.681Z,6.10
2017-12-26T08:05:47.091Z,6.50
2017-12-26T08:06:48.539Z,6.70
2017-12-26T08:07:49.855Z,7.00
2017-12-26T08:08:51.167Z,7.30
2017-12-26T08:09:53.191Z,7.70
2017-12-26T08:10:54.502Z,7.70
2017-12-26T08:11:56.069Z,7.90
2017-12-26T08:12:57.417Z,8.10
2017-12-26T08:13:58.699Z,8.30
2017-12-26T08:14:59.997Z,8.50
2017-12-26T08:16:01.295Z,8.70
2017-12-26T08:17:02.606Z,8.90
2017-12-26T08:18:03.945Z,9.00
2017-12-26T08:19:05.239Z,9.20
2017-12-26T08:20:06.533Z,9.40
2017-12-26T08:21:07.832Z,9.50
2017-12-26T08:22:09.989Z,9.90
2017-12-26T08:23:12.008Z,10.00
2017-12-26T08:24:13.311Z,10.00
2017-12-26T08:25:14.605Z,10.20
2017-12-26T08:26:15.893Z,10.20
2017-12-26T08:27:17.221Z,10.30
2017-12-26T08:28:18.532Z,10.30
2017-12-26T08:29:20.580Z,10.40
2017-12-26T08:30:22.615Z,10.40
2017-12-26T08:31:23.919Z,10.40
2017-12-26T08:32:25.467Z,10.40
2017-12-26T08:33:26.781Z,10.40
2017-12-26T08:34:28.071Z,10.40
2017-12-26T08:35:29.361Z,10.40
2017-12-26T08:36:30.663Z,10.20
2017-12-26T08:37:32.732Z,10.00
2017-12-26T08:38:34.035Z,9.90
2017-12-26T08:39:35.335Z,9.80
2017-12-26T08:40:36.627Z,9.60
2017-12-26T08:41:38.689Z,9.40
2017-12-26T08:42:40.283Z,9.40
2017-12-26T08:43:41.633Z,9.30
2017-12-26T08:44:42.943Z,9.30
2017-12-26T08:45:44.256Z,9.20
2017-12-26T08:46:45.585Z,9.20
2017-12-26T08:47:47.247Z,9.20
2017-12-26T08:48:48.545Z,9.20
2017-12-26T08:49:50.588Z,9.30
2017-12-26T08:50:51.912Z,9.30
2017-12-26T08:51:53.276Z,9.20
2017-12-26T08:52:54.831Z,9.20
2017-12-26T08:53:56.870Z,9.20
2017-12-26T08:54:58.911Z,9.30
2017-12-26T08:56:00.221Z,9.30
2017-12-26T08:57:01.527Z,9.50
2017-12-26T08:58:02.863Z,9.50
2017-12-26T08:59:04.175Z,9.60
2017-12-26T09:00:06.207Z,9.50
2017-12-26T09:01:07.506Z,9.50
2017-12-26T09:02:08.821Z,9.40
2017-12-26T09:03:10.355Z,9.50
2017-12-26T09:04:11.659Z,9.60
2017-12-26T09:05:12.969Z,9.80
2017-12-26T09:06:14.285Z,9.90
2017-12-26T09:07:15.583Z,10.10
2017-12-26T09:08:17.651Z,10.60
2017-12-26T09:09:19.715Z,10.70
2017-12-26T09:10:21.014Z,10.70
2017-12-26T09:11:22.311Z,10.80
2017-12-26T09:12:23.645Z,10.90
2017-12-26T09:13:24.974Z,11.00
2017-12-26T09:14:26.257Z,11.00
2017-12-26T09:15:27.589Z,11.10
2017-12-26T09:16:28.923Z,11.10
2017-12-26T09:17:30.243Z,11.10
2017-12-26T09:18:31.563Z,11.20
2017-12-26T09:19:32.855Z,11.10
2017-12-26T09:20:34.160Z,11.20
2017-12-26T09:21:35.501Z,11.20
2017-12-26T09:22:36.813Z,11.30
2017-12-26T09:23:38.199Z,11.30
2017-12-26T09:24:40.255Z,11.40
2017-12-26T09:25:41.541Z,11.40
2017-12-26T09:26:42.853Z,11.40
2017-12-26T09:27:44.161Z,11.40
2017-12-26T09:28:45.471Z,11.30
2017-12-26T09:29:46.803Z,11.30
2017-12-26T09:30:48.835Z,11.30
2017-12-26T09:31:50.149Z,11.30
2017-12-26T09:32:52.231Z,11.50
2017-12-26T09:33:53.885Z,11.50
2017-12-26T09:34:55.225Z,11.60
2017-12-26T09:35:56.547Z,11.60
2017-12-26T09:36:57.897Z,11.70
2017-12-26T09:38:00.481Z,11.70
2017-12-26T09:39:02.114Z,11.70
2017-12-26T09:40:03.495Z,11.60
2017-12-26T09:41:05.555Z,11.50
2017-12-26T09:42:07.601Z,11.50
2017-12-26T09:43:08.907Z,11.40
2017-12-26T09:44:10.639Z,11.40
2017-12-26T09:45:11.942Z,11.30
2017-12-26T09:46:13.249Z,11.20
2017-12-26T09:47:14.587Z,11.10
2017-12-26T09:48:15.901Z,10.90
2017-12-26T09:49:17.551Z,10.80
2017-12-26T09:50:18.905Z,10.70
2017-12-26T09:51:20.276Z,10.60
2017-12-26T09:52:21.626Z,10.60
2017-12-26T09:53:22.994Z,10.40
2017-12-26T09:54:24.347Z,10.30
2017-12-26T09:55:25.718Z,10.20
2017-12-26T09:56:27.031Z,10.10
2017-12-26T09:57:28.483Z,10.00
2017-12-26T09:58:30.793Z,10.00
2017-12-26T09:59:32.273Z,10.00
2017-12-26T10:00:34.723Z,9.90
2017-12-26T10:01:36.145Z,9.90
2017-12-26T10:02:37.541Z,9.80
2017-12-26T10:03:38.883Z,9.70
2017-12-26T10:04:40.607Z,9.70
2017-12-26T10:05:42.724Z,9.60
2017-12-26T10:06:44.112Z,9.60
2017-12-26T10:07:45.482Z,9.60
2017-12-26T10:08:46.920Z,9.50
2017-12-26T10:09:48.380Z,9.50
2017-12-26T10:10:49.789Z,9.40
2017-12-26T10:11:51.193Z,9.30
2017-12-26T10:12:52.605Z,9.30
2017-12-26T10:13:54.033Z,9.30
2017-12-26T10:14:55.917Z,9.20
2017-12-26T10:15:58.085Z,9.30
2017-12-26T10:17:00.217Z,9.30
2017-12-26T10:18:01.657Z,9.30
2017-12-26T10:19:03.065Z,9.40
2017-12-26T10:20:04.761Z,9.40
2017-12-26T10:21:06.971Z,9.30
2017-12-26T10:22:08.403Z,9.30
2017-12-26T10:23:09.809Z,9.30
2017-12-26T10:24:11.944Z,9.10
2017-12-26T10:25:13.425Z,9.20
2017-12-26T10:26:14.845Z,9.20
2017-12-26T10:27:16.289Z,9.10
2017-12-26T10:28:17.693Z,9.10
2017-12-26T10:29:19.136Z,9.10
2017-12-26T10:30:20.771Z,9.10
2017-12-26T10:31:22.116Z,9.00
2017-12-26T10:32:23.445Z,9.00
2017-12-26T10:33:24.785Z,8.90
2017-12-26T10:34:26.131Z,8.90
2017-12-26T10:35:27.481Z,8.90
2017-12-26T10:36:28.849Z,9.00
2017-12-26T10:37:30.178Z,9.00
2017-12-26T10:38:31.538Z,9.00
2017-12-26T10:39:32.877Z,9.10
2017-12-26T10:40:34.211Z,9.20
2017-12-26T10:41:35.526Z,9.20
2017-12-26T10:42:36.859Z,9.20
2017-12-26T10:43:38.895Z,9.30
2017-12-26T10:44:40.265Z,9.30
2017-12-26T10:45:41.589Z,9.30
2017-12-26T10:46:43.618Z,9.30
2017-12-26T10:47:44.925Z,9.20
2017-12-26T10:48:46.237Z,9.20
2017-12-26T10:49:47.565Z,9.10
2017-12-26T10:50:49.150Z,9.10
2017-12-26T10:51:50.485Z,9.10
2017-12-26T10:52:51.779Z,9.20
2017-12-26T10:53:53.071Z,9.10
2017-12-26T10:54:54.367Z,9.20
2017-12-26T10:55:55.683Z,9.10
2017-12-26T10:56:56.991Z,9.10
2017-12-26T10:57:58.311Z,9.00
2017-12-26T10:58:59.608Z,8.90
2017-12-26T11:00:00.904Z,8.80
2017-12-26T11:01:02.247Z,8.80
2017-12-26T11:02:04.277Z,8.80
2017-12-26T11:03:05.573Z,8.70
2017-12-26T11:04:06.855Z,8.80
2017-12-26T11:05:08.169Z,8.70
2017-12-26T11:06:09.490Z,8.80
2017-12-26T11:07:10.783Z,8.80
2017-12-26T11:08:12.810Z,8.90
2017-12-26T11:09:14.095Z,8.90
2017-12-26T11:10:15.449Z,9.00
2017-12-26T11:11:16.775Z,9.00
2017-12-26T11:12:18.079Z,9.00
2017-12-26T11:13:19.369Z,9.00
2017-12-26T11:14:20.680Z,9.00
2017-12-26T11:15:21.963Z,9.00
2017-12-26T11:16:24.027Z,9.00
2017-12-26T11:17:26.104Z,9.00
2017-12-26T11:18:28.147Z,9.10
2017-12-26T11:19:29.453Z,9.00
2017-12-26T11:20:30.749Z,9.10
2017-12-26T11:21:32.301Z,9.10
2017-12-26T11:22:33.627Z,9.10
2017-12-26T11:23:34.958Z,9.10
2017-12-26T11:24:36.999Z,9.20
2017-12-26T11:25:39.043Z,9.20
2017-12-26T11:26:40.895Z,9.20
2017-12-26T11:27:42.189Z,9.20
2017-12-26T11:28:43.479Z,9.10
2017-12-26T11:29:45.521Z,9.00
2017-12-26T11:30:46.846Z,9.10
2017-12-26T11:31:48.163Z,9.00
2017-12-26T11:32:49.455Z,9.00
2017-12-26T11:33:51.483Z,8.90
2017-12-26T11:34:52.771Z,8.90
2017-12-26T11:35:54.055Z,8.90
2017-12-26T11:36:55.374Z,8.90
2017-12-26T11:37:56.679Z,8.80
2017-12-26T11:38:57.986Z,8.80
2017-12-26T11:40:00.028Z,8.80
2017-12-26T11:41:02.129Z,8.80
2017-12-26T11:42:03.459Z,8.80
2017-12-26T11:43:04.782Z,8.80
2017-12-26T11:44:06.117Z,8.80
2017-12-26T11:45:07.456Z,8.80
2017-12-26T11:46:08.740Z,8.70
2017-12-26T11:47:10.267Z,8.70
2017-12-26T11:48:11.601Z,8.80
2017-12-26T11:49:12.892Z,8.80
2017-12-26T11:50:14.933Z,8.80
2017-12-26T11:51:16.233Z,8.80
2017-12-26T11:52:18.289Z,8.90
2017-12-26T11:53:19.601Z,8.80
2017-12-26T11:54:20.891Z,8.90
2017-12-26T11:55:22.188Z,8.90
2017-12-26T11:56:23.471Z,8.90
2017-12-26T11:57:24.801Z,8.90
2017-12-26T11:58:26.089Z,9.00
2017-12-26T11:59:27.381Z,9.00
2017-12-26T12:00:28.680Z,9.00
2017-12-26T12:01:29.985Z,9.00
2017-12-26T12:02:31.644Z,9.00
2017-12-26T12:03:32.939Z,9.10
2017-12-26T12:04:34.987Z,9.10
2017-12-26T12:05:36.287Z,9.10
2017-12-26T12:06:38.367Z,9.20
2017-12-26T12:07:39.938Z,9.20
2017-12-26T12:08:41.971Z,9.20
2017-12-26T12:09:43.285Z,9.20
2017-12-26T12:10:44.579Z,9.20
2017-12-26T12:11:45.891Z,9.30
2017-12-26T12:12:47.961Z,9.30
2017-12-26T12:13:49.255Z,9.30
2017-12-26T12:14:50.565Z,9.40
2017-12-26T12:15:51.871Z,9.40
2017-12-26T12:16:53.160Z,9.40
2017-12-26T12:17:54.483Z,9.30
2017-12-26T12:18:55.779Z,9.30
2017-12-26T12:19:57.823Z,9.30
2017-12-26T12:20:59.863Z,9.30
2017-12-26T12:22:01.167Z,9.30
2017-12-26T12:23:02.485Z,9.30
2017-12-26T12:24:03.792Z,9.40
2017-12-26T12:25:05.839Z,9.50
2017-12-26T12:26:07.865Z,9.50
2017-12-26T12:27:09.171Z,9.50
2017-12-26T12:28:10.475Z,9.40
2017-12-26T12:29:12.516Z,9.50
2017-12-26T12:30:14.577Z,9.40
2017-12-26T12:31:16.606Z,9.40
2017-12-26T12:32:17.899Z,9.30
2017-12-26T12:33:19.474Z,9.30
2017-12-26T12:34:20.786Z,9.30
2017-12-26T12:35:22.083Z,9.30
2017-12-26T12:36:24.149Z,9.30
2017-12-26T12:37:25.461Z,9.30
2017-12-26T12:38:26.779Z,9.30
2017-12-26T12:39:28.106Z,9.30
2017-12-26T12:40:29.393Z,9.30
2017-12-26T12:41:30.691Z,9.30
2017-12-26T12:42:32.019Z,9.30
2017-12-26T12:43:33.337Z,9.30
2017-12-26T12:44:41.620Z,9.30
2017-12-26T12:45:43.056Z,9.40
2017-12-26T12:46:44.389Z,9.40
2017-12-26T12:47:45.733Z,9.40
2017-12-26T12:48:47.312Z,9.40
2017-12-26T12:49:48.653Z,9.40
2017-12-26T12:50:49.959Z,9.50
2017-12-26T12:51:51.240Z,9.40
2017-12-26T12:52:52.555Z,9.40
2017-12-26T12:53:53.921Z,9.30
2017-12-26T12:54:55.237Z,9.20
2017-12-26T12:55:56.534Z,9.20
2017-12-26T12:56:57.844Z,9.10
2017-12-26T12:57:59.869Z,9.00
2017-12-26T12:59:01.209Z,9.00
2017-12-26T13:00:02.523Z,9.00
2017-12-26T13:01:03.819Z,9.00
2017-12-26T13:02:05.120Z,9.00
2017-12-26T13:03:06.422Z,9.00
2017-12-26T13:04:07.735Z,9.00
2017-12-26T13:05:09.033Z,9.00
2017-12-26T13:06:10.327Z,9.00
2017-12-26T13:07:11.619Z,9.10
2017-12-26T13:08:13.667Z,9.10
2017-12-26T13:09:14.981Z,9.10
2017-12-26T13:10:16.263Z,9.10
2017-12-26T13:11:18.316Z,9.10
2017-12-26T13:12:19.635Z,9.10
2017-12-26T13:13:21.685Z,9.20
2017-12-26T13:14:23.015Z,9.10
2017-12-26T13:15:25.054Z,9.20
2017-12-26T13:16:26.355Z,9.10
2017-12-26T13:17:27.655Z,9.10
2017-12-26T13:18:29.687Z,9.10
2017-12-26T13:19:31.251Z,9.10
2017-12-26T13:20:33.291Z,9.10
2017-12-26T13:21:34.602Z,9.10
2017-12-26T13:22:36.026Z,9.00
2017-12-26T13:23:37.331Z,9.00
2017-12-26T13:24:39.653Z,8.90
2017-12-26T13:25:40.969Z,8.80
2017-12-26T13:26:42.273Z,8.80
2017-12-26T13:27:43.581Z,8.80
2017-12-26T13:28:45.611Z,8.80
2017-12-26T13:29:46.959Z,8.70
2017-12-26T13:30:48.363Z,8.70
2017-12-26T13:31:49.647Z,8.70
2017-12-26T13:32:50.943Z,8.70
2017-12-26T13:33:52.243Z,8.70
2017-12-26T13:34:54.287Z,8.70
2017-12-26T13:35:56.326Z,8.70
2017-12-26T13:36:57.643Z,8.70